Time;durP1;ratioP1;P1;durP2;ratioP2;P2;SDS_P1;SDS_P2;PMS_P1;PMS_P2;Temp;Humidity;BMP_temperature;BMP_pressure;BME280_temperature;BME280_humidity;BME280_pressure;Samples;Min_cycle;Max_cycle;Signal;HPM_P1;HPM_P2
2021/07/26 04:00:18;;;;;;;8.80;8.10;;;18.70;99.90;;;;;;6098651;23;20410;31
2021/07/26 04:02:49;;;;;;;9.67;8.77;;;18.60;99.90;;;;;;4992466;28;20808;-66
2021/07/26 04:05:22;;;;;;;9.47;8.57;;;18.60;99.90;;;;;;4994150;28;20445;-68
2021/07/26 04:07:50;;;;;;;8.57;7.70;;;18.70;99.90;;;;;;4993888;28;20911;-67
2021/07/26 04:10:18;;;;;;;8.93;8.20;;;18.70;99.90;;;;;;4994043;28;20530;-68
2021/07/26 04:12:48;;;;;;;8.90;7.73;;;18.70;99.90;;;;;;4993736;28;20480;-67
2021/07/26 04:15:14;;;;;;;8.00;7.40;;;18.80;99.90;;;;;;4994148;28;20498;-67
2021/07/26 04:17:43;;;;;;;8.17;7.40;;;18.80;99.90;;;;;;4993713;28;20564;-68
2021/07/26 04:20:10;;;;;;;8.40;7.70;;;18.90;99.90;;;;;;4994118;28;20457;-67
2021/07/26 04:22:37;;;;;;;8.23;7.57;;;18.90;99.90;;;;;;4993741;28;20461;-68
2021/07/26 04:25:04;;;;;;;7.53;7.03;;;19.00;99.90;;;;;;4995849;28;20454;-66
2021/07/26 04:27:34;;;;;;;10.23;7.80;;;18.90;99.90;;;;;;4997772;28;20453;-66
2021/07/26 04:30:00;;;;;;;10.60;7.33;;;19.00;99.90;;;;;;4997299;28;20966;-67
2021/07/26 04:32:27;;;;;;;8.00;7.37;;;19.00;99.90;;;;;;4997379;28;20477;-66
2021/07/26 04:34:59;;;;;;;8.43;7.67;;;19.00;99.90;;;;;;4997554;28;20465;-66
2021/07/26 04:37:26;;;;;;;8.23;7.63;;;19.00;99.90;;;;;;4997489;28;20449;-66
2021/07/26 04:39:53;;;;;;;8.07;7.43;;;19.00;99.90;;;;;;4998094;28;20532;-67
2021/07/26 04:42:19;;;;;;;7.67;7.07;;;19.00;99.90;;;;;;4996995;28;20986;-66
2021/07/26 04:44:46;;;;;;;6.83;6.13;;;19.10;99.90;;;;;;4997288;28;20842;-66
2021/07/26 04:47:13;;;;;;;8.87;7.50;;;19.20;99.90;;;;;;4997349;28;20482;-67
2021/07/26 04:49:39;;;;;;;8.00;7.30;;;19.20;99.90;;;;;;4997379;28;20465;-67
2021/07/26 04:52:08;;;;;;;7.40;6.70;;;19.30;99.90;;;;;;4997032;28;20474;-67
2021/07/26 04:54:34;;;;;;;8.10;7.40;;;19.40;99.90;;;;;;4997337;28;20482;-67
2021/07/26 04:57:01;;;;;;;9.30;7.00;;;19.40;99.90;;;;;;4997305;28;20465;-68
2021/07/26 04:59:28;;;;;;;7.83;7.20;;;19.40;99.90;;;;;;4997065;28;20954;-68
2021/07/26 05:01:54;;;;;;;7.77;6.40;;;19.40;99.90;;;;;;4996813;28;20504;-68
2021/07/26 05:04:21;;;;;;;7.10;6.30;;;19.50;99.90;;;;;;4997230;28;20561;-68
2021/07/26 05:06:48;;;;;;;11.43;7.53;;;19.50;99.90;;;;;;4997049;28;20465;-68
2021/07/26 05:09:16;;;;;;;6.57;5.97;;;19.50;99.90;;;;;;4997101;28;20457;-66
2021/07/26 05:11:43;;;;;;;7.23;6.20;;;19.50;99.90;;;;;;4996601;28;21008;-67
2021/07/26 05:14:11;;;;;;;6.10;5.60;;;19.50;99.90;;;;;;4996618;28;20477;-67
2021/07/26 05:16:38;;;;;;;5.93;5.53;;;19.60;99.90;;;;;;4996901;28;20489;-68
2021/07/26 05:19:04;;;;;;;7.47;6.77;;;19.60;99.90;;;;;;4996632;28;20458;-68
2021/07/26 05:21:31;;;;;;;6.20;5.60;;;19.70;99.90;;;;;;4997111;28;20481;-67
2021/07/26 05:23:58;;;;;;;7.03;6.33;;;19.70;99.90;;;;;;4996892;28;20460;-67
2021/07/26 05:26:26;;;;;;;7.10;6.40;;;19.70;99.90;;;;;;4996667;28;20453;-67
2021/07/26 05:28:52;;;;;;;7.30;6.70;;;19.70;99.90;;;;;;4996395;28;20939;-67
2021/07/26 05:31:19;;;;;;;6.23;5.73;;;19.70;99.90;;;;;;4997010;28;20831;-67
2021/07/26 05:33:45;;;;;;;7.60;5.87;;;19.70;99.90;;;;;;4997099;28;20501;-69
2021/07/26 05:36:13;;;;;;;6.60;6.00;;;19.70;99.90;;;;;;4996414;28;20464;-68
2021/07/26 05:38:40;;;;;;;6.80;6.20;;;19.80;99.90;;;;;;5000046;28;20465;-68
2021/07/26 05:41:08;;;;;;;6.33;5.93;;;19.90;99.90;;;;;;5005918;28;20478;-68
2021/07/26 05:43:36;;;;;;;14.53;6.80;;;20.00;99.90;;;;;;5003148;28;20454;-68
2021/07/26 05:46:03;;;;;;;8.80;6.40;;;20.10;99.90;;;;;;4996515;28;20800;-68
2021/07/26 05:48:29;;;;;;;6.90;6.40;;;20.20;99.90;;;;;;4995974;28;20845;-67
2021/07/26 05:50:56;;;;;;;7.13;6.53;;;20.20;99.90;;;;;;4996209;28;20602;-67
2021/07/26 05:53:23;;;;;;;7.80;7.20;;;20.20;99.90;;;;;;4995794;28;20862;-67
2021/07/26 05:55:49;;;;;;;10.50;7.47;;;20.30;99.90;;;;;;4996385;28;20461;-67
2021/07/26 05:58:16;;;;;;;7.30;6.60;;;20.50;99.90;;;;;;4995974;28;20469;-67
2021/07/26 06:00:46;;;;;;;7.10;6.50;;;20.50;99.90;;;;;;4995715;28;20486;-67
2021/07/26 06:03:13;;;;;;;7.67;6.70;;;20.70;99.90;;;;;;4995696;28;20450;-67
2021/07/26 06:05:40;;;;;;;8.17;7.47;;;20.80;99.90;;;;;;4996100;28;20489;-67
2021/07/26 06:08:06;;;;;;;8.23;7.50;;;21.00;99.90;;;;;;4996662;28;20800;-68
2021/07/26 06:10:33;;;;;;;7.70;7.00;;;21.10;99.90;;;;;;4995790;28;20500;-68
2021/07/26 06:13:00;;;;;;;8.47;7.40;;;21.30;99.90;;;;;;4995753;28;20453;-68
2021/07/26 06:15:26;;;;;;;8.33;7.63;;;21.30;99.90;;;;;;4995788;28;20454;-69
2021/07/26 06:17:54;;;;;;;7.60;6.77;;;21.40;99.90;;;;;;4995724;28;20460;-68
2021/07/26 06:20:21;;;;;;;7.87;7.10;;;21.50;99.90;;;;;;4995719;28;20500;-67
2021/07/26 06:22:48;;;;;;;8.10;7.50;;;21.70;99.90;;;;;;4995706;28;20466;-67
2021/07/26 06:25:15;;;;;;;7.83;7.03;;;21.90;99.90;;;;;;4995593;28;20858;-67
2021/07/26 06:27:42;;;;;;;6.93;6.33;;;22.00;99.90;;;;;;4998022;28;20453;-67
2021/07/26 06:30:10;;;;;;;7.33;6.60;;;22.00;99.90;;;;;;4997972;28;20488;-67
2021/07/26 06:32:37;;;;;;;7.57;6.97;;;22.20;99.90;;;;;;4995532;28;20869;-67
2021/07/26 06:35:07;;;;;;;9.90;6.40;;;22.40;99.90;;;;;;4995510;28;20481;-67
2021/07/26 06:37:34;;;;;;;7.10;6.40;;;22.60;99.90;;;;;;4995480;28;20442;-68
2021/07/26 06:40:02;;;;;;;7.83;7.10;;;22.70;99.90;;;;;;4995303;28;20457;-69
2021/07/26 06:42:29;;;;;;;7.23;5.80;;;22.50;99.90;;;;;;4995309;28;20540;-68
2021/07/26 06:44:56;;;;;;;6.73;6.23;;;22.80;99.90;;;;;;4994791;28;20453;-68
2021/07/26 06:47:23;;;;;;;6.90;6.20;;;23.00;99.90;;;;;;4994396;28;20548;-67
2021/07/26 06:49:49;;;;;;;6.20;5.63;;;23.50;99.90;;;;;;4995252;28;20480;-68
2021/07/26 06:52:18;;;;;;;6.93;6.23;;;23.90;99.90;;;;;;4995100;28;20477;-69
2021/07/26 06:54:45;;;;;;;6.30;5.70;;;24.50;99.90;;;;;;4994992;28;20489;-69
2021/07/26 06:57:11;;;;;;;6.33;5.73;;;25.00;99.90;;;;;;4995135;28;20461;-68
2021/07/26 06:59:38;;;;;;;7.93;5.87;;;25.70;99.90;;;;;;4994753;28;20934;-67
2021/07/26 07:02:05;;;;;;;5.10;4.80;;;26.20;99.90;;;;;;4994905;28;20497;-67
2021/07/26 07:04:31;;;;;;;5.83;5.33;;;26.40;99.90;;;;;;4994999;28;20449;-67
2021/07/26 07:06:59;;;;;;;6.20;5.60;;;26.70;99.90;;;;;;4994719;28;20517;-68
2021/07/26 07:09:27;;;;;;;5.67;5.17;;;27.00;99.90;;;;;;4995373;28;20442;-67
2021/07/26 07:11:54;;;;;;;6.07;5.30;;;27.40;99.90;;;;;;4995158;28;20470;-68
2021/07/26 07:14:20;;;;;;;5.90;4.47;;;28.00;99.90;;;;;;4994521;28;20477;-68
2021/07/26 07:16:47;;;;;;;8.77;4.60;;;28.30;99.90;;;;;;4994514;28;20453;-68
2021/07/26 07:19:14;;;;;;;5.10;4.70;;;28.80;99.90;;;;;;4995177;28;20461;-68
2021/07/26 07:21:40;;;;;;;4.60;4.13;;;29.20;99.90;;;;;;4995257;28;20477;-68
2021/07/26 07:24:07;;;;;;;7.30;5.10;;;29.60;99.90;;;;;;4994922;28;20446;-68
2021/07/26 07:26:35;;;;;;;5.20;4.80;;;29.80;99.90;;;;;;4994453;28;20454;-69
2021/07/26 07:29:03;;;;;;;5.77;5.20;;;29.90;99.90;;;;;;4994537;28;20592;-69
2021/07/26 07:31:34;;;;;;;5.00;4.43;;;30.20;99.90;;;;;;4994829;28;20478;-69
2021/07/26 07:34:00;;;;;;;5.30;4.90;;;30.70;99.90;;;;;;4994805;28;20513;-69
2021/07/26 07:36:27;;;;;;;4.20;3.90;;;30.90;99.90;;;;;;4995157;28;20530;-69
2021/07/26 07:38:56;;;;;;;5.17;4.67;;;30.90;99.90;;;;;;4995406;28;20450;-69
2021/07/26 07:41:23;;;;;;;4.20;3.80;;;30.90;99.90;;;;;;4994754;28;20473;-69
2021/07/26 07:43:51;;;;;;;3.93;3.63;;;31.30;98.50;;;;;;4994855;28;20450;-70
2021/07/26 07:46:19;;;;;;;5.43;4.70;;;31.60;96.40;;;;;;4995265;28;20456;-68
2021/07/26 07:48:46;;;;;;;4.00;3.60;;;31.90;97.10;;;;;;4994527;28;20479;-69
2021/07/26 07:51:13;;;;;;;3.47;3.17;;;32.30;95.10;;;;;;4994391;28;20478;-70
2021/07/26 07:53:40;;;;;;;4.00;3.70;;;32.20;94.20;;;;;;4994418;28;20457;-69
2021/07/26 07:56:07;;;;;;;3.43;3.13;;;31.90;96.10;;;;;;4994675;28;20464;-69
2021/07/26 07:58:35;;;;;;;3.70;3.50;;;32.00;94.90;;;;;;4995664;28;20493;-70
2021/07/26 08:01:04;;;;;;;3.87;3.60;;;32.50;92.70;;;;;;4998293;28;20484;-69
2021/07/26 08:03:30;;;;;;;3.60;3.40;;;32.90;90.80;;;;;;4998490;28;20454;-69
2021/07/26 08:06:00;;;;;;;3.77;3.47;;;33.30;90.70;;;;;;4998223;28;20542;-69
2021/07/26 08:08:27;;;;;;;3.87;3.67;;;33.80;90.30;;;;;;4998278;28;20493;-68
2021/07/26 08:10:53;;;;;;;3.40;3.20;;;33.60;87.20;;;;;;4998142;28;20584;-69
2021/07/26 08:13:21;;;;;;;3.73;3.43;;;33.80;85.00;;;;;;4998682;28;20461;-69
2021/07/26 08:15:49;;;;;;;3.60;3.33;;;34.20;81.80;;;;;;4998509;28;20465;-70
2021/07/26 08:18:17;;;;;;;4.30;3.60;;;34.60;78.70;;;;;;4997781;28;20942;-70
2021/07/26 08:20:44;;;;;;;4.70;3.70;;;35.00;81.30;;;;;;4998230;28;20480;-70
2021/07/26 08:23:10;;;;;;;3.77;3.57;;;34.80;81.40;;;;;;4998081;28;20453;-70
2021/07/26 08:25:37;;;;;;;3.90;3.60;;;34.80;75.40;;;;;;4998208;28;20449;-70
2021/07/26 08:28:04;;;;;;;3.90;3.60;;;34.30;78.00;;;;;;4998086;28;20460;-69
2021/07/26 08:30:33;;;;;;;5.10;4.60;;;33.90;78.50;;;;;;4998009;28;20460;-68
2021/07/26 08:33:00;;;;;;;4.90;4.43;;;33.30;79.30;;;;;;4998289;28;20499;-68
2021/07/26 08:35:29;;;;;;;4.50;4.10;;;32.70;87.30;;;;;;4997915;28;20473;-69
2021/07/26 08:37:55;;;;;;;4.83;4.13;;;32.70;84.30;;;;;;4998191;28;20430;-69
2021/07/26 08:40:24;;;;;;;3.87;3.67;;;32.40;82.30;;;;;;4997487;28;20958;-70
2021/07/26 08:42:51;;;;;;;4.97;4.27;;;32.00;83.60;;;;;;4997700;28;20980;-69
2021/07/26 08:45:18;;;;;;;4.70;4.30;;;31.60;86.70;;;;;;4998078;28;20461;-68
2021/07/26 08:47:46;;;;;;;3.70;3.40;;;31.50;85.90;;;;;;4997971;28;20859;-69
2021/07/26 08:50:16;;;;;;;5.13;4.67;;;31.90;87.00;;;;;;5000346;28;20459;-69
2021/07/26 08:52:46;;;;;;;6.50;4.23;;;32.50;84.60;;;;;;5005100;28;20464;-69
2021/07/26 08:55:14;;;;;;;7.63;4.57;;;33.10;83.50;;;;;;5005691;28;20477;-69
2021/07/26 08:57:43;;;;;;;4.70;4.40;;;33.30;79.30;;;;;;4999372;28;20464;-69
2021/07/26 09:00:11;;;;;;;4.23;3.93;;;33.50;80.60;;;;;;4997646;28;20461;-69
2021/07/26 09:02:38;;;;;;;4.80;4.40;;;33.40;82.10;;;;;;4997201;28;20467;-69
2021/07/26 09:05:07;;;;;;;5.33;4.33;;;33.80;78.80;;;;;;4997358;28;20456;-69
2021/07/26 09:07:37;;;;;;;5.70;4.13;;;34.00;79.80;;;;;;4997342;28;20868;-69
2021/07/26 09:10:12;;;;;;;4.37;3.97;;;34.50;74.50;;;;;;4996345;28;20919;-69
2021/07/26 09:12:40;;;;;;;4.63;4.23;;;34.60;77.10;;;;;;4997389;28;20480;-69
2021/07/26 09:15:22;;;;;;;4.83;4.17;;;34.50;73.70;;;;;;4997172;28;20572;-68
2021/07/26 09:17:49;;;;;;;7.00;4.43;;;34.30;76.20;;;;;;4997273;28;20445;-69
2021/07/26 09:20:16;;;;;;;4.10;3.60;;;34.70;77.60;;;;;;4997190;28;20454;-70
2021/07/26 09:22:45;;;;;;;4.27;3.63;;;35.20;72.90;;;;;;4996618;28;20966;-71
2021/07/26 09:25:20;;;;;;;5.00;4.60;;;35.70;71.10;;;;;;4996989;28;20476;-70
2021/07/26 09:28:03;;;;;;;4.77;4.37;;;36.00;70.00;;;;;;4997204;28;20441;-70
2021/07/26 09:30:34;;;;;;;4.47;4.20;;;36.40;71.50;;;;;;4997110;28;20449;-70
2021/07/26 09:33:02;;;;;;;4.87;4.47;;;36.50;67.50;;;;;;4996910;28;20514;-70
2021/07/26 09:35:29;;;;;;;5.30;4.90;;;36.30;66.50;;;;;;4996849;28;20543;-69
2021/07/26 09:38:01;;;;;;;5.40;4.90;;;36.40;66.20;;;;;;4996875;28;20457;-69
2021/07/26 09:40:33;;;;;;;5.40;4.90;;;36.60;66.20;;;;;;4997049;28;20453;-70
2021/07/26 09:43:16;;;;;;;5.20;4.70;;;37.00;63.90;;;;;;4996509;28;20438;-69
2021/07/26 09:45:43;;;;;;;4.30;4.00;;;36.90;66.50;;;;;;4997489;28;20896;-70
2021/07/26 09:48:12;;;;;;;4.80;4.50;;;37.20;65.70;;;;;;4996248;28;20463;-70
2021/07/26 09:50:41;;;;;;;4.50;4.20;;;37.60;65.30;;;;;;4996227;28;20480;-70
2021/07/26 09:53:09;;;;;;;4.57;4.37;;;37.90;62.80;;;;;;4996346;28;20461;-70
2021/07/26 09:55:38;;;;;;;5.00;4.60;;;37.90;60.20;;;;;;4996214;28;20481;-69
2021/07/26 09:58:05;;;;;;;4.23;3.97;;;37.70;59.60;;;;;;4996042;28;20814;-69
2021/07/26 10:00:33;;;;;;;6.30;4.57;;;37.30;63.60;;;;;;4995966;28;20456;-70
2021/07/26 10:03:00;;;;;;;4.97;4.00;;;37.40;65.00;;;;;;4996000;28;20823;-70
2021/07/26 10:05:29;;;;;;;4.10;3.73;;;37.50;59.30;;;;;;4996333;28;20463;-70
2021/07/26 10:07:56;;;;;;;3.83;3.50;;;37.60;59.80;;;;;;4995982;28;20530;-70
2021/07/26 10:10:23;;;;;;;4.50;4.10;;;37.60;58.60;;;;;;4995794;28;20452;-70
2021/07/26 10:12:51;;;;;;;4.03;3.63;;;37.70;58.30;;;;;;4996146;28;20454;-69
2021/07/26 10:15:19;;;;;;;4.13;3.80;;;38.00;56.60;;;;;;5007379;28;20487;-70
2021/07/26 10:17:47;;;;;;;3.30;3.10;;;38.30;56.50;;;;;;5016073;28;20456;-69
2021/07/26 10:20:20;;;;;;;3.50;3.30;;;38.30;59.40;;;;;;5015822;28;20448;-70
2021/07/26 10:22:52;;;;;;;4.93;4.33;;;37.70;56.90;;;;;;5013903;28;20439;-70
2021/07/26 10:25:26;;;;;;;4.67;4.37;;;36.90;56.60;;;;;;4995923;28;20443;-70
2021/07/26 10:27:57;;;;;;;4.03;3.80;;;36.50;59.20;;;;;;4995927;28;20449;-70
2021/07/26 10:30:35;;;;;;;4.10;3.80;;;36.80;58.10;;;;;;4995594;28;20806;-70
2021/07/26 10:33:02;;;;;;;4.17;3.87;;;36.60;59.90;;;;;;4995303;28;20449;-69
2021/07/26 10:35:37;;;;;;;4.00;3.60;;;36.50;60.10;;;;;;4995411;28;20488;-70
2021/07/26 10:38:05;;;;;;;3.97;3.73;;;36.90;62.80;;;;;;4995552;28;20479;-71
2021/07/26 10:40:32;;;;;;;4.40;4.00;;;37.30;60.40;;;;;;4995323;28;20846;-70
2021/07/26 10:43:04;;;;;;;3.30;3.10;;;37.70;56.00;;;;;;4995967;28;20670;-70
2021/07/26 10:45:58;;;;;;;3.90;3.60;;;37.40;55.60;;;;;;4996229;28;20756;-70
2021/07/26 10:48:31;;;;;;;4.10;3.33;;;36.70;57.10;;;;;;4996794;28;20442;-70
2021/07/26 10:51:00;;;;;;;3.73;3.53;;;36.80;55.90;;;;;;4995854;28;20478;-70
2021/07/26 10:53:58;;;;;;;4.37;3.80;;;37.20;59.30;;;;;;4995234;28;20458;-70
2021/07/26 10:56:25;;;;;;;4.33;3.43;;;37.00;57.90;;;;;;4994835;28;21049;-69
2021/07/26 10:59:00;;;;;;;5.50;3.43;;;36.70;54.40;;;;;;4995920;28;20465;-69
2021/07/26 11:01:40;;;;;;;3.30;3.20;;;36.60;55.60;;;;;;4995658;28;20485;-69
2021/07/26 11:04:34;;;;;;;3.90;3.60;;;36.50;55.60;;;;;;4994888;28;20462;-69
2021/07/26 11:07:02;;;;;;;3.30;3.10;;;36.50;59.20;;;;;;4994763;28;20492;-68
2021/07/26 11:09:42;;;;;;;4.33;3.87;;;36.80;55.80;;;;;;4994920;28;20453;-69
2021/07/26 11:12:09;;;;;;;2.90;2.80;;;36.60;55.60;;;;;;4994767;28;20480;-69
2021/07/26 11:14:38;;;;;;;3.47;3.23;;;36.60;55.60;;;;;;4994875;28;20457;-70
2021/07/26 11:17:07;;;;;;;4.93;3.43;;;36.50;57.70;;;;;;4995064;28;20454;-70
2021/07/26 11:19:39;;;;;;;3.60;3.17;;;36.60;59.30;;;;;;4994939;28;20457;-69
2021/07/26 11:22:07;;;;;;;3.63;3.43;;;36.60;58.80;;;;;;4994565;28;20477;-69
2021/07/26 11:24:47;;;;;;;7.20;3.57;;;36.60;55.90;;;;;;4994811;28;20560;-70
2021/07/26 11:27:15;;;;;;;7.60;3.73;;;36.00;57.50;;;;;;4994422;28;20460;-69
2021/07/26 11:29:45;;;;;;;4.00;3.80;;;35.50;59.90;;;;;;4994687;28;20460;-69
2021/07/26 11:32:18;;;;;;;4.20;3.80;;;35.00;58.20;;;;;;4994605;28;20842;-70
2021/07/26 11:34:45;;;;;;;3.80;3.60;;;34.20;63.70;;;;;;4994189;28;20454;-70
2021/07/26 11:37:14;;;;;;;3.80;3.50;;;33.90;71.40;;;;;;4994801;28;20818;-70
2021/07/26 11:39:59;;;;;;;4.93;4.50;;;33.60;66.00;;;;;;4994662;28;20461;-69
2021/07/26 11:42:28;;;;;;;3.83;3.53;;;33.40;63.40;;;;;;4994597;28;20470;-68
2021/07/26 11:44:57;;;;;;;4.37;4.03;;;33.00;64.30;;;;;;4994467;28;20942;-69
2021/07/26 11:47:34;;;;;;;3.60;3.30;;;32.20;66.70;;;;;;4994921;28;20457;-69
2021/07/26 11:50:02;;;;;;;3.10;2.93;;;31.60;71.80;;;;;;4994593;28;20433;-70
2021/07/26 11:52:29;;;;;;;3.60;3.40;;;31.20;72.00;;;;;;4994738;28;20496;-70
2021/07/26 11:54:55;;;;;;;3.90;3.60;;;30.10;75.40;;;;;;4994308;28;20453;-70
2021/07/26 11:57:22;;;;;;;3.13;2.70;;;29.60;77.10;;;;;;4995040;28;20480;-70
2021/07/26 11:59:50;;;;;;;4.03;2.50;;;29.10;78.40;;;;;;4994344;28;20966;-69
2021/07/26 12:02:26;;;;;;;3.17;2.53;;;28.60;78.60;;;;;;4994462;28;20488;-69
2021/07/26 12:04:53;;;;;;;2.80;2.37;;;28.10;82.10;;;;;;4994635;28;20476;-71
2021/07/26 12:07:40;;;;;;;2.23;2.13;;;27.80;85.30;;;;;;4994944;28;20458;-69
2021/07/26 12:10:07;;;;;;;3.83;2.40;;;27.40;85.50;;;;;;5005193;28;20469;-69
2021/07/26 12:12:36;;;;;;;2.00;1.90;;;27.10;87.10;;;;;;5004988;28;20474;-69
2021/07/26 12:15:25;;;;;;;2.30;2.20;;;26.70;89.00;;;;;;4997731;28;20481;-69
2021/07/26 12:18:04;;;;;;;1.90;1.83;;;26.30;89.90;;;;;;4995988;28;20445;-68
2021/07/26 12:20:31;;;;;;;1.90;1.80;;;26.20;90.00;;;;;;4996262;28;20444;-68
2021/07/26 12:22:58;;;;;;;2.03;1.90;;;26.10;91.10;;;;;;4994871;28;20449;-69
2021/07/26 12:25:25;;;;;;;2.80;2.60;;;25.90;92.30;;;;;;4994518;28;20966;-68
2021/07/26 12:27:58;;;;;;;3.40;2.10;;;25.90;92.50;;;;;;4994501;28;20950;-68
2021/07/26 12:30:36;;;;;;;2.10;2.00;;;25.80;92.50;;;;;;4994614;28;20445;-69
2021/07/26 12:33:05;;;;;;;2.57;2.40;;;25.70;93.90;;;;;;4993959;28;20844;-68
2021/07/26 12:35:32;;;;;;;1.90;1.80;;;25.50;94.20;;;;;;4993684;28;20990;-69
2021/07/26 12:38:19;;;;;;;3.93;2.20;;;25.60;95.00;;;;;;4993719;28;20829;-68
2021/07/26 12:40:48;;;;;;;2.10;2.00;;;25.70;95.50;;;;;;4993962;28;20478;-68
2021/07/26 12:43:17;;;;;;;2.03;1.93;;;25.70;95.80;;;;;;4993708;28;20927;-69
2021/07/26 12:45:56;;;;;;;1.60;1.50;;;25.70;95.30;;;;;;4995002;28;20453;-69
2021/07/26 12:48:26;;;;;;;2.03;1.93;;;25.80;96.20;;;;;;4998087;28;20472;-69
2021/07/26 12:50:53;;;;;;;2.00;1.90;;;25.80;96.50;;;;;;4997767;28;20477;-69
2021/07/26 12:53:21;;;;;;;2.03;1.80;;;26.00;95.70;;;;;;4997511;28;20540;-69
2021/07/26 12:55:48;;;;;;;2.87;2.00;;;26.20;96.00;;;;;;4997463;28;20481;-69
2021/07/26 12:58:16;;;;;;;6.13;2.13;;;26.30;96.40;;;;;;4997305;28;20465;-69
2021/07/26 13:00:44;;;;;;;2.20;2.10;;;26.40;98.20;;;;;;4997279;28;20528;-69
2021/07/26 13:03:14;;;;;;;3.20;2.13;;;26.50;98.30;;;;;;4997663;28;20496;-68
2021/07/26 13:05:43;;;;;;;3.97;2.60;;;26.50;99.90;;;;;;4997469;28;20441;-69
2021/07/26 13:08:11;;;;;;;2.10;1.90;;;26.50;99.90;;;;;;4997710;28;20454;-69
2021/07/26 13:10:41;;;;;;;1.53;1.50;;;26.40;98.40;;;;;;4997382;28;20477;-69
2021/07/26 13:13:08;;;;;;;3.63;2.00;;;26.10;99.00;;;;;;4997670;28;20889;-68
2021/07/26 13:15:36;;;;;;;1.97;1.87;;;26.00;99.10;;;;;;4996867;28;20484;-69
2021/07/26 13:18:03;;;;;;;8.20;2.20;;;25.80;98.90;;;;;;4997163;28;20485;-69
2021/07/26 13:20:30;;;;;;;2.13;2.03;;;25.70;99.90;;;;;;4996678;28;20457;-68
2021/07/26 13:22:58;;;;;;;2.40;2.30;;;25.70;99.90;;;;;;4997018;28;20458;-68
2021/07/26 13:25:25;;;;;;;3.33;2.60;;;25.70;99.80;;;;;;4996999;28;20457;-68
2021/07/26 13:27:52;;;;;;;2.53;2.07;;;25.70;99.90;;;;;;4997076;28;20492;-68
2021/07/26 13:30:19;;;;;;;2.47;2.10;;;25.70;99.80;;;;;;4996645;28;20504;-68
2021/07/26 13:32:45;;;;;;;2.30;2.20;;;25.70;99.90;;;;;;4996862;28;21026;-69
2021/07/26 13:35:13;;;;;;;2.37;2.17;;;25.40;99.90;;;;;;4996915;28;20460;-68
2021/07/26 13:37:40;;;;;;;2.20;2.10;;;25.40;99.90;;;;;;4996697;28;20963;-68
2021/07/26 13:40:10;;;;;;;5.63;2.47;;;25.40;99.90;;;;;;4996834;28;20458;-69
2021/07/26 13:42:37;;;;;;;3.10;2.90;;;25.50;99.90;;;;;;4996639;28;20508;-68
2021/07/26 13:45:04;;;;;;;2.87;2.67;;;25.60;99.90;;;;;;4996656;28;20454;-68
2021/07/26 13:47:31;;;;;;;5.90;3.10;;;25.50;99.90;;;;;;4996598;28;20465;-68
2021/07/26 13:49:58;;;;;;;4.90;3.27;;;25.90;99.90;;;;;;4996484;28;20479;-68
2021/07/26 13:52:25;;;;;;;5.10;3.40;;;26.10;99.90;;;;;;4996346;28;20481;-68
2021/07/26 13:54:52;;;;;;;3.90;3.70;;;26.20;99.90;;;;;;4996711;28;20454;-68
2021/07/26 13:57:20;;;;;;;4.10;3.80;;;26.10;99.90;;;;;;4996143;28;20481;-68
2021/07/26 13:59:47;;;;;;;4.20;4.00;;;26.00;99.90;;;;;;4996404;28;20454;-68
2021/07/26 14:02:15;;;;;;;3.27;3.07;;;25.80;99.90;;;;;;4996330;28;20868;-69
2021/07/26 14:04:42;;;;;;;3.03;2.87;;;25.60;99.90;;;;;;4996159;28;20438;-68
2021/07/26 14:07:09;;;;;;;3.03;2.83;;;25.30;99.90;;;;;;4995968;28;20962;-69
2021/07/26 14:09:36;;;;;;;3.83;3.00;;;25.20;99.90;;;;;;4996196;28;20457;-68
2021/07/26 14:12:03;;;;;;;4.07;3.77;;;25.10;99.90;;;;;;4996226;28;20474;-69
2021/07/26 14:14:31;;;;;;;4.20;3.90;;;25.00;99.90;;;;;;4995938;28;20818;-68
2021/07/26 14:16:59;;;;;;;4.00;3.70;;;24.70;99.90;;;;;;4995685;28;20484;-68
2021/07/26 14:19:28;;;;;;;4.60;4.20;;;24.50;99.90;;;;;;4996064;28;20799;-68
2021/07/26 14:21:55;;;;;;;5.70;4.30;;;24.30;99.90;;;;;;4996061;28;20474;-69
2021/07/26 14:24:22;;;;;;;4.27;3.87;;;24.20;99.90;;;;;;4995630;28;20456;-68
2021/07/26 14:26:49;;;;;;;4.33;4.03;;;24.10;99.90;;;;;;4995641;28;20458;-68
2021/07/26 14:29:15;;;;;;;4.53;4.10;;;24.10;99.90;;;;;;4995826;28;20456;-69
2021/07/26 14:31:44;;;;;;;5.90;4.60;;;24.00;99.90;;;;;;4995445;28;20851;-68
2021/07/26 14:34:10;;;;;;;4.13;3.83;;;23.70;99.90;;;;;;4998173;28;20461;-68
2021/07/26 14:36:37;;;;;;;6.10;4.33;;;23.60;99.90;;;;;;5005099;28;20484;-68
2021/07/26 14:39:04;;;;;;;5.50;4.03;;;23.50;99.90;;;;;;5004991;28;20484;-68
2021/07/26 14:41:31;;;;;;;4.40;4.10;;;23.40;99.90;;;;;;5006126;28;20474;-68
2021/07/26 14:43:58;;;;;;;4.03;3.83;;;23.30;99.90;;;;;;5005734;28;20461;-69
2021/07/26 14:46:24;;;;;;;3.80;3.53;;;23.20;99.90;;;;;;5008058;28;20457;-69
2021/07/26 14:48:56;;;;;;;3.57;3.37;;;23.10;99.90;;;;;;5008142;28;20460;-68
2021/07/26 14:51:23;;;;;;;3.60;3.37;;;23.00;99.90;;;;;;5008032;28;20472;-68
2021/07/26 14:53:50;;;;;;;3.50;3.20;;;22.80;99.90;;;;;;5007775;28;20445;-68
2021/07/26 14:56:17;;;;;;;3.23;3.03;;;22.70;99.90;;;;;;5002137;28;20982;-68
2021/07/26 14:58:43;;;;;;;4.60;3.50;;;22.50;99.90;;;;;;5005661;28;20453;-68
2021/07/26 15:01:10;;;;;;;3.53;3.30;;;22.30;99.90;;;;;;5004323;28;20485;-68
2021/07/26 15:03:37;;;;;;;3.40;3.17;;;22.10;99.90;;;;;;5006226;28;20462;-68
2021/07/26 15:06:05;;;;;;;4.00;2.97;;;22.00;99.90;;;;;;5007273;28;20453;-68
2021/07/26 15:08:32;;;;;;;3.60;3.40;;;21.80;99.90;;;;;;5006765;28;20457;-68
2021/07/26 15:10:58;;;;;;;3.43;3.20;;;21.60;99.90;;;;;;5007439;28;20474;-69
2021/07/26 15:13:25;;;;;;;3.40;3.20;;;21.40;99.90;;;;;;5009258;28;20809;-69
2021/07/26 15:15:52;;;;;;;3.63;3.33;;;21.20;99.90;;;;;;5008563;28;20481;-69
2021/07/26 15:18:20;;;;;;;2.97;2.70;;;21.00;99.90;;;;;;5008287;28;20477;-69
2021/07/26 15:20:48;;;;;;;4.10;3.80;;;20.70;99.90;;;;;;5001401;28;20474;-68
2021/07/26 15:23:16;;;;;;;3.23;3.00;;;20.70;99.90;;;;;;4997359;28;20458;-67
2021/07/26 15:25:43;;;;;;;3.47;3.17;;;20.60;99.90;;;;;;5000712;28;20943;-68
2021/07/26 15:28:10;;;;;;;3.10;2.90;;;20.40;99.90;;;;;;5002773;28;20456;-68
2021/07/26 15:30:38;;;;;;;3.93;3.63;;;20.20;99.90;;;;;;5001970;28;20482;-68
2021/07/26 15:33:06;;;;;;;4.23;3.50;;;20.20;99.90;;;;;;4997805;28;20465;-68
2021/07/26 15:35:33;;;;;;;3.80;3.43;;;20.20;99.90;;;;;;4998448;28;20512;-68
2021/07/26 15:37:59;;;;;;;3.93;3.63;;;20.20;99.90;;;;;;4997315;28;20477;-68
2021/07/26 15:40:29;;;;;;;4.33;3.83;;;20.20;99.90;;;;;;4997156;28;20525;-67
2021/07/26 15:42:57;;;;;;;4.07;3.67;;;20.20;99.90;;;;;;5002990;28;20464;-67
2021/07/26 15:45:25;;;;;;;4.97;4.57;;;20.20;99.90;;;;;;5001910;28;20453;-68
2021/07/26 15:47:51;;;;;;;5.30;4.80;;;20.10;99.90;;;;;;5000807;28;20457;-68
2021/07/26 15:50:18;;;;;;;5.93;5.53;;;20.10;99.90;;;;;;5001130;28;20456;-68
2021/07/26 15:52:46;;;;;;;5.20;4.80;;;20.20;99.90;;;;;;5001589;28;20461;-68
2021/07/26 15:55:14;;;;;;;6.33;5.37;;;20.20;99.90;;;;;;4999415;28;20453;-68
2021/07/26 15:57:43;;;;;;;6.73;6.13;;;20.30;99.90;;;;;;4999369;28;20474;-68
2021/07/26 16:00:11;;;;;;;6.37;5.77;;;20.50;99.90;;;;;;4998148;28;20461;-68
2021/07/26 16:02:39;;;;;;;5.17;4.80;;;20.50;99.90;;;;;;4998793;28;20481;-68
2021/07/26 16:05:06;;;;;;;5.83;5.37;;;20.60;99.90;;;;;;4999813;28;20454;-68
2021/07/26 16:07:33;;;;;;;6.77;6.20;;;20.80;99.90;;;;;;4999776;28;20477;-70
2021/07/26 16:10:00;;;;;;;6.03;5.33;;;20.90;99.90;;;;;;4999418;28;20458;-69
2021/07/26 16:12:27;;;;;;;9.33;5.60;;;21.00;99.90;;;;;;4999095;28;20473;-68
2021/07/26 16:14:56;;;;;;;6.33;5.70;;;21.10;99.90;;;;;;4997536;28;20828;-68
2021/07/26 16:17:22;;;;;;;5.20;4.80;;;21.20;99.90;;;;;;4995031;28;20837;-68
2021/07/26 16:19:49;;;;;;;6.53;4.00;;;21.20;99.90;;;;;;4996218;28;20453;-68
2021/07/26 16:22:16;;;;;;;6.03;5.10;;;21.00;99.90;;;;;;4998284;28;20484;-69
2021/07/26 16:24:43;;;;;;;6.27;5.20;;;20.90;99.90;;;;;;4997689;28;20950;-68
2021/07/26 16:27:10;;;;;;;5.73;5.23;;;21.00;99.90;;;;;;4998129;28;20458;-67
2021/07/26 16:29:37;;;;;;;5.53;5.03;;;21.10;99.90;;;;;;4998274;28;20553;-67
2021/07/26 16:32:08;;;;;;;6.20;5.60;;;21.30;99.90;;;;;;4998784;28;20883;-67
2021/07/26 16:34:35;;;;;;;5.07;4.77;;;21.50;99.90;;;;;;4998215;28;20437;-65
2021/07/26 16:37:02;;;;;;;5.30;4.87;;;21.60;99.90;;;;;;4997846;28;20505;-65
2021/07/26 16:39:29;;;;;;;6.60;4.00;;;21.70;99.90;;;;;;4997824;28;20958;-64
2021/07/26 16:41:56;;;;;;;5.27;4.80;;;21.70;99.90;;;;;;4998380;28;20889;-65
2021/07/26 16:44:22;;;;;;;4.20;3.90;;;21.80;99.90;;;;;;4998752;28;20460;-65
2021/07/26 16:46:49;;;;;;;6.43;4.90;;;21.70;99.90;;;;;;4998530;28;20461;-65
2021/07/26 16:49:17;;;;;;;5.70;5.20;;;21.70;99.90;;;;;;4998544;28;20450;-67
2021/07/26 16:51:44;;;;;;;5.13;4.73;;;21.70;99.90;;;;;;4998250;28;20480;-67